createdAt,value
2019-04-16T00:01:14.973Z,5.91
2019-04-16T00:06:04.437Z,5.89
2019-04-16T00:09:50.198Z,5.96
2019-04-16T00:13:39.947Z,5.96
2019-04-16T00:17:10.041Z,5.93
2019-04-16T00:21:00.762Z,5.96
2019-04-16T00:24:33.291Z,5.92
2019-04-16T00:28:03.323Z,5.94
2019-04-16T00:31:34.349Z,5.96
2019-04-16T00:35:07.114Z,5.91
2019-04-16T00:38:40.858Z,5.92
2019-04-16T00:42:11.301Z,5.89
2019-04-16T00:45:41.448Z,5.9
2019-04-16T00:49:11.467Z,5.88
2019-04-16T00:52:41.668Z,5.92
2019-04-16T00:56:13.375Z,5.89
2019-04-16T00:59:45.995Z,5.82
2019-04-16T01:00:15.952Z,5.84
2019-04-16T01:03:46.066Z,5.83
2019-04-16T01:07:16.187Z,5.84
2019-04-16T01:10:46.376Z,5.8
2019-04-16T01:14:16.484Z,5.78
2019-04-16T01:17:46.525Z,5.79
2019-04-16T01:21:17.558Z,5.8
2019-04-16T01:24:51.587Z,5.76
2019-04-16T01:28:25.042Z,5.72
2019-04-16T01:32:37.335Z,5.65
2019-04-16T01:38:30.570Z,5.71
2019-04-16T01:42:00.559Z,5.73
2019-04-16T01:45:30.686Z,5.69
2019-04-16T01:49:00.666Z,5.76
2019-04-16T01:52:30.712Z,5.7
2019-04-16T01:56:00.720Z,5.69
2019-04-16T01:59:35.581Z,5.77
2019-04-16T02:03:06.354Z,5.75
2019-04-16T02:06:36.382Z,5.69
2019-04-16T02:10:07.613Z,5.68
2019-04-16T02:13:38.178Z,5.68
2019-04-16T02:17:08.222Z,5.69
2019-04-16T02:20:39.485Z,5.69
2019-04-16T02:24:10.821Z,5.61
2019-04-16T02:27:41.035Z,5.62
2019-04-16T02:31:15.731Z,5.6
2019-04-16T02:34:46.519Z,5.59
2019-04-16T02:38:16.489Z,5.54
2019-04-16T02:41:46.558Z,5.56
2019-04-16T02:45:23.072Z,5.56
2019-04-16T02:48:53.666Z,5.56
2019-04-16T02:52:32.019Z,5.59
2019-04-16T02:56:18.991Z,5.51
2019-04-16T02:59:49.444Z,5.48
2019-04-16T03:02:42.309Z,5.42
2019-04-16T03:06:12.326Z,5.43
2019-04-16T03:09:42.661Z,5.39
2019-04-16T03:13:12.761Z,5.42
2019-04-16T03:16:51.545Z,5.44
2019-04-16T03:20:24.010Z,5.38
2019-04-16T03:23:54.712Z,5.42
2019-04-16T03:27:25.847Z,5.44
2019-04-16T03:30:56.128Z,5.41
2019-04-16T03:34:26.162Z,5.31
2019-04-16T03:37:56.222Z,5.31
2019-04-16T03:41:26.379Z,5.31
2019-04-16T03:44:56.416Z,5.26
2019-04-16T03:48:26.424Z,5.27
2019-04-16T03:51:56.528Z,5.38
2019-04-16T03:55:26.605Z,5.46
2019-04-16T03:58:56.777Z,5.51
2019-04-16T04:02:26.845Z,5.54
2019-04-16T04:05:57.321Z,5.57
2019-04-16T04:09:27.843Z,5.51
2019-04-16T04:12:57.885Z,5.54
2019-04-16T04:16:30.635Z,5.65
2019-04-16T04:20:04.440Z,5.77
2019-04-16T04:23:34.548Z,5.88
2019-04-16T04:27:04.712Z,6.02
2019-04-16T04:30:35.792Z,6.03
2019-04-16T04:34:05.847Z,6.04
2019-04-16T04:37:36.014Z,6
2019-04-16T04:41:06.606Z,6.08
2019-04-16T04:44:37.154Z,6.2
2019-04-16T04:48:10.570Z,6.31
2019-04-16T04:51:43.384Z,6.48
2019-04-16T04:55:13.824Z,6.58
2019-04-16T04:58:43.916Z,6.76
2019-04-16T05:00:15.137Z,6.85
2019-04-16T05:03:54.757Z,7.07
2019-04-16T05:07:25.653Z,7.13
2019-04-16T05:11:01.085Z,7.28
2019-04-16T05:14:32.780Z,7.38
2019-04-16T05:18:05.625Z,7.47
2019-04-16T05:21:36.046Z,7.57
2019-04-16T05:25:06.651Z,7.64
2019-04-16T05:28:36.705Z,7.71
2019-04-16T05:32:07.997Z,7.78
2019-04-16T05:35:38.585Z,7.84
2019-04-16T05:39:11.430Z,7.96
2019-04-16T05:42:41.532Z,7.98
2019-04-16T05:46:11.608Z,8.14
2019-04-16T05:49:41.691Z,8.24
2019-04-16T05:53:13.557Z,8.45
2019-04-16T05:56:47.541Z,8.67
2019-04-16T06:00:24.098Z,8.79
2019-04-16T06:03:54.340Z,8.86
2019-04-16T06:07:24.440Z,8.94
2019-04-16T06:10:57.328Z,9.18
2019-04-16T06:14:33.599Z,9.38
2019-04-16T06:20:28.322Z,9.76
2019-04-16T06:24:07.957Z,9.87
2019-04-16T06:27:49.973Z,10
2019-04-16T06:31:32.736Z,10.04
2019-04-16T06:35:16.984Z,10.23
2019-04-16T06:42:21.323Z,10.42
2019-04-16T06:46:33.421Z,10.58
2019-04-16T06:50:29.576Z,10.76
2019-04-16T06:56:44.064Z,10.92
2019-04-16T07:08:55.940Z,10.96
2019-04-16T07:12:28.886Z,11.07
2019-04-16T07:15:58.931Z,11.1
2019-04-16T07:19:28.963Z,11.09
2019-04-16T07:22:59.079Z,11.34
2019-04-16T07:26:29.325Z,11.52
2019-04-16T07:30:08.677Z,11.43
2019-04-16T07:36:05.575Z,11.7
2019-04-16T07:39:41.540Z,11.48
2019-04-16T07:44:04.474Z,11.72
2019-04-16T07:48:06.222Z,12.32
2019-04-16T07:51:52.152Z,12.77
2019-04-16T07:55:29.836Z,13.23
2019-04-16T07:59:01.460Z,13.54
2019-04-16T08:02:31.903Z,14.11
2019-04-16T08:06:02.190Z,14.56
2019-04-16T08:09:33.650Z,14.69
2019-04-16T08:13:13.860Z,14.23
2019-04-16T08:16:47.753Z,14.13
2019-04-16T08:20:21.022Z,13.17
2019-04-16T08:23:57.169Z,13.09
2019-04-16T08:27:27.254Z,13.46
2019-04-16T08:30:57.334Z,13.78
2019-04-16T08:34:27.388Z,14.11
2019-04-16T08:37:58.530Z,14.07
2019-04-16T08:41:28.967Z,14.14
2019-04-16T08:44:59.018Z,14.62
2019-04-16T08:48:29.033Z,14.72
2019-04-16T08:51:59.068Z,14.36
2019-04-16T08:55:29.175Z,14.32
2019-04-16T08:59:01.332Z,14.14
2019-04-16T09:00:15.501Z,13.78
2019-04-16T09:03:45.749Z,13.59
2019-04-16T09:07:50.682Z,13.16
2019-04-16T09:11:23.614Z,13.47
2019-04-16T09:14:56.061Z,14.23
2019-04-16T09:18:31.576Z,14.65
2019-04-16T09:22:01.600Z,15.02
2019-04-16T09:25:42.575Z,15.25
2019-04-16T09:29:55.205Z,15.15
2019-04-16T09:33:33.572Z,14.88
2019-04-16T09:37:45.326Z,14.65
2019-04-16T09:41:50.197Z,14.19
2019-04-16T09:45:20.405Z,14.2
2019-04-16T09:48:50.486Z,14.59
2019-04-16T09:52:23.196Z,14.33
2019-04-16T09:55:54.126Z,14.23
2019-04-16T09:59:29.400Z,14.44
2019-04-16T10:03:06.588Z,14.38
2019-04-16T10:06:36.765Z,15.11
2019-04-16T10:10:07.233Z,15.42
2019-04-16T10:13:37.401Z,15.39
2019-04-16T10:17:07.916Z,15.53
2019-04-16T10:20:40.301Z,16.16
2019-04-16T10:25:24.902Z,16.69
2019-04-16T10:28:55.240Z,17.19
2019-04-16T10:32:26.600Z,17.14
2019-04-16T10:35:57.589Z,17.3
2019-04-16T10:39:39.831Z,16.67
2019-04-16T10:45:54.309Z,16.66
2019-04-16T10:49:46.379Z,16.69
2019-04-16T10:53:26.458Z,16.35
2019-04-16T10:57:38.584Z,16.02
2019-04-16T11:00:27.189Z,15.79
2019-04-16T11:05:20.599Z,15.72
2019-04-16T11:08:50.815Z,16.48
2019-04-16T11:12:20.955Z,15.97
2019-04-16T11:15:51.154Z,16.23
2019-04-16T11:19:21.353Z,17.12
2019-04-16T11:22:51.602Z,16.72
2019-04-16T11:26:21.709Z,17.4
2019-04-16T11:29:51.845Z,17.57
2019-04-16T11:33:22.094Z,17.97
2019-04-16T11:36:52.161Z,17.71
2019-04-16T11:40:22.252Z,17.82
2019-04-16T11:43:52.465Z,18.37
2019-04-16T11:47:23.548Z,18.29
2019-04-16T11:50:53.667Z,18.6
2019-04-16T11:54:23.719Z,18.4
2019-04-16T11:57:53.775Z,17.75
2019-04-16T12:01:30.238Z,16.48
2019-04-16T12:05:05.771Z,16.87
2019-04-16T12:09:05.308Z,17.29
2019-04-16T12:17:22.725Z,18.43
2019-04-16T12:20:59.987Z,18.58
2019-04-16T12:24:39.546Z,18.6
2019-04-16T12:28:42.198Z,18.88
2019-04-16T12:32:53.360Z,19.19
2019-04-16T12:37:05.435Z,19.62
2019-04-16T12:40:42.300Z,19.13
2019-04-16T12:44:45.125Z,19.02
2019-04-16T12:49:10.389Z,19.2
2019-04-16T12:55:18.431Z,19.38
2019-04-16T12:59:24.942Z,19.5
2019-04-16T13:04:02.102Z,19.43
2019-04-16T13:07:39.140Z,20.13
2019-04-16T13:11:47.088Z,19.74
2019-04-16T13:15:30.415Z,19.87
2019-04-16T13:19:38.552Z,20.11
2019-04-16T13:23:23.185Z,20.12
2019-04-16T13:26:59.793Z,20.25
2019-04-16T13:30:29.907Z,20.38
2019-04-16T13:34:00.076Z,20.61
2019-04-16T13:37:33.741Z,20.09
2019-04-16T13:41:06.850Z,19.97
2019-04-16T13:44:40.701Z,19.86
2019-04-16T13:48:28.213Z,20.36
2019-04-16T13:51:59.372Z,20.93
2019-04-16T13:55:49.414Z,21.12
2019-04-16T14:00:30.696Z,21.29
2019-04-16T14:04:03.918Z,21.71
2019-04-16T14:07:34.043Z,22.19
2019-04-16T14:11:04.235Z,22.16
2019-04-16T14:14:34.252Z,22.08
2019-04-16T14:18:04.607Z,21.9
2019-04-16T14:21:34.717Z,22.07
2019-04-16T14:25:05.869Z,22.51
2019-04-16T14:28:51.243Z,22.08
2019-04-16T14:32:22.390Z,22.12
2019-04-16T14:35:52.619Z,22.31
2019-04-16T14:39:29.749Z,22.66
2019-04-16T14:42:59.911Z,22.37
2019-04-16T14:46:30.134Z,22.2
2019-04-16T14:50:00.170Z,22.31
2019-04-16T14:56:00.718Z,20.87
2019-04-16T14:59:37.809Z,20.65
2019-04-16T15:00:31.256Z,20.84
2019-04-16T15:04:11.827Z,21.17
2019-04-16T15:08:04.676Z,21.53
2019-04-16T15:14:04.155Z,21.1
2019-04-16T15:17:53.753Z,21.1
2019-04-16T15:22:33.613Z,21.42
2019-04-16T15:26:14.761Z,20.17
2019-04-16T15:30:54.278Z,20.15
2019-04-16T15:34:28.133Z,18.97
2019-04-16T15:38:06.525Z,17.78
2019-04-16T15:41:54.973Z,18.25
2019-04-16T15:45:37.220Z,18.86
2019-04-16T15:49:27.248Z,18.75
2019-04-16T15:52:59.981Z,18.88
2019-04-16T15:56:41.743Z,18.4
2019-04-16T16:02:50.658Z,17.01
2019-04-16T16:06:23.549Z,15.69
2019-04-16T16:10:12.527Z,15.15
2019-04-16T16:13:44.104Z,14.96
2019-04-16T16:17:14.189Z,14.33
2019-04-16T16:20:44.262Z,13.65
2019-04-16T16:24:14.298Z,13.34
2019-04-16T16:27:47.058Z,12.97
2019-04-16T16:31:17.503Z,12.66
2019-04-16T16:34:47.601Z,12.39
2019-04-16T16:38:20.633Z,12.25
2019-04-16T16:41:51.074Z,12.32
2019-04-16T16:45:30.903Z,12.4
2019-04-16T16:49:01.027Z,12.42
2019-04-16T16:52:55.568Z,12.4
2019-04-16T16:56:36.833Z,12.28
2019-04-16T17:00:36.771Z,12.07
2019-04-16T17:04:10.971Z,12.01
2019-04-16T17:07:41.039Z,11.87
2019-04-16T17:11:16.510Z,11.73
2019-04-16T17:14:47.051Z,11.54
2019-04-16T17:18:17.039Z,11.18
2019-04-16T17:21:47.239Z,10.92
2019-04-16T17:25:17.384Z,10.68
2019-04-16T17:28:47.575Z,10.56
2019-04-16T17:32:17.723Z,10.32
2019-04-16T17:35:47.997Z,10.22
2019-04-16T17:39:42.361Z,10.18
2019-04-16T17:43:18.671Z,10.07
2019-04-16T17:47:04.202Z,9.99
2019-04-16T17:50:41.439Z,9.82
2019-04-16T17:54:50.334Z,9.77
2019-04-16T17:58:28.697Z,9.7
2019-04-16T18:03:16.717Z,9.64
2019-04-16T18:06:56.821Z,9.48
2019-04-16T18:11:02.969Z,9.39
2019-04-16T18:15:11.659Z,9.28
2019-04-16T18:18:49.492Z,9.14
2019-04-16T18:22:26.627Z,9.01
2019-04-16T18:26:35.594Z,9.03
2019-04-16T18:30:49.691Z,8.95
2019-04-16T18:34:30.391Z,8.85
2019-04-16T18:38:22.186Z,8.75
2019-04-16T18:41:57.444Z,8.61
2019-04-16T18:46:50.681Z,8.61
2019-04-16T18:50:27.712Z,8.47
2019-04-16T18:53:58.373Z,8.42
2019-04-16T18:57:28.513Z,8.33
2019-04-16T19:00:50.632Z,8.35
2019-04-16T19:04:21.621Z,8.34
2019-04-16T19:07:52.482Z,8.26
2019-04-16T19:11:22.685Z,8.26
2019-04-16T19:14:52.801Z,8.27
2019-04-16T19:18:22.924Z,8.19
2019-04-16T19:21:53.160Z,8.2
2019-04-16T19:25:23.291Z,8.14
2019-04-16T19:28:53.585Z,8.17
2019-04-16T19:32:24.849Z,8.21
2019-04-16T19:35:57.745Z,8.15
2019-04-16T19:39:27.876Z,8.16
2019-04-16T19:43:01.342Z,8.15
2019-04-16T19:46:32.980Z,8.16
2019-04-16T19:50:03.630Z,8.17
2019-04-16T19:53:33.645Z,8.23
2019-04-16T19:57:03.835Z,8.27
2019-04-16T20:00:33.985Z,8.28
2019-04-16T20:04:09.258Z,8.26
2019-04-16T20:07:41.590Z,8.32
2019-04-16T20:11:13.311Z,8.17
2019-04-16T20:14:43.387Z,8.12
2019-04-16T20:18:13.400Z,8.06
2019-04-16T20:21:43.506Z,8.02
2019-04-16T20:25:13.686Z,8.03
2019-04-16T20:28:45.318Z,8.01
2019-04-16T20:32:18.546Z,8.04
2019-04-16T20:35:50.626Z,7.99
2019-04-16T20:39:21.306Z,7.96
2019-04-16T20:42:51.384Z,8.02
2019-04-16T20:46:21.523Z,7.98
2019-04-16T20:49:51.526Z,7.91
2019-04-16T20:53:21.724Z,7.91
2019-04-16T20:56:53.311Z,7.94
2019-04-16T21:00:23.098Z,7.98
2019-04-16T21:04:05.743Z,7.97
2019-04-16T21:07:36.716Z,7.96
2019-04-16T21:11:08.784Z,7.85
2019-04-16T21:14:39.662Z,7.93
2019-04-16T21:18:11.932Z,7.98
2019-04-16T21:21:42.346Z,7.99
2019-04-16T21:25:13.828Z,7.98
2019-04-16T21:28:53.830Z,7.95
2019-04-16T21:32:49.476Z,7.95
2019-04-16T21:36:30.274Z,7.93
2019-04-16T21:40:01.946Z,8
2019-04-16T21:43:32.091Z,7.98
2019-04-16T21:47:02.174Z,8
2019-04-16T21:50:32.322Z,7.97
2019-04-16T21:54:02.455Z,7.97
2019-04-16T21:57:32.495Z,7.99
2019-04-16T22:01:11.894Z,8.02
2019-04-16T22:04:42.729Z,8
2019-04-16T22:08:15.339Z,8.01
2019-04-16T22:11:46.393Z,8.05
2019-04-16T22:15:16.435Z,7.99
2019-04-16T22:18:46.508Z,8.03
2019-04-16T22:22:16.506Z,7.97
2019-04-16T22:25:46.597Z,7.96
2019-04-16T22:29:16.700Z,7.95
2019-04-16T22:32:46.881Z,7.87
2019-04-16T22:36:16.925Z,7.8
2019-04-16T22:39:52.708Z,7.76
2019-04-16T22:45:15.068Z,7.73
2019-04-16T22:48:55.309Z,7.7
2019-04-16T22:52:25.372Z,7.77
2019-04-16T22:55:56.747Z,7.78
2019-04-16T22:59:28.019Z,7.83
2019-04-16T23:00:26.657Z,7.84
2019-04-16T23:03:56.764Z,7.83
2019-04-16T23:07:26.848Z,7.82
2019-04-16T23:10:56.870Z,7.75
2019-04-16T23:14:27.950Z,7.67
2019-04-16T23:17:58.116Z,7.67
2019-04-16T23:21:28.301Z,7.63
2019-04-16T23:24:58.399Z,7.64
2019-04-16T23:28:28.467Z,7.64
2019-04-16T23:31:58.546Z,7.65
2019-04-16T23:35:28.649Z,7.65
2019-04-16T23:39:03.260Z,7.7
2019-04-16T23:42:36.519Z,7.64
2019-04-16T23:46:58.472Z,7.63
2019-04-16T23:51:37.947Z,7.64
2019-04-16T23:55:16.299Z,7.52
2019-04-16T23:58:54.114Z,7.44
